createdAt,value
2022-10-05T00:00:57.949Z,82.54
2022-10-05T00:01:58.394Z,82.54
2022-10-05T00:02:57.918Z,82.54
2022-10-05T00:03:57.931Z,82.64
2022-10-05T00:04:57.995Z,82.23
2022-10-05T00:05:57.920Z,82.19
2022-10-05T00:06:57.873Z,82.33
2022-10-05T00:07:57.866Z,82.23
2022-10-05T00:08:57.848Z,82.40
2022-10-05T00:09:57.851Z,82.54
2022-10-05T00:10:57.832Z,82.23
2022-10-05T00:12:04.819Z,82.64
2022-10-05T00:12:57.808Z,82.29
2022-10-05T00:14:05.689Z,82.54
2022-10-05T00:15:05.694Z,82.33
2022-10-05T00:16:05.832Z,82.27
2022-10-05T00:16:57.856Z,82.37
2022-10-05T00:17:57.811Z,82.47
2022-10-05T00:18:57.770Z,82.89
2022-10-05T00:19:57.732Z,82.82
2022-10-05T00:20:57.739Z,83.09
2022-10-05T00:21:57.702Z,82.82
2022-10-05T00:22:57.692Z,82.82
2022-10-05T00:23:57.718Z,82.92
2022-10-05T00:24:57.670Z,83.33
2022-10-05T00:25:57.656Z,83.03
2022-10-05T00:26:58.332Z,82.82
2022-10-05T00:27:57.723Z,82.92
2022-10-05T00:28:57.620Z,82.68
2022-10-05T00:29:57.679Z,82.71
2022-10-05T00:30:57.596Z,82.92
2022-10-05T00:31:57.705Z,82.71
2022-10-05T00:32:59.829Z,82.82
2022-10-05T00:33:57.589Z,82.92
2022-10-05T00:34:57.561Z,82.62
2022-10-05T00:35:57.575Z,83.03
2022-10-05T00:36:57.528Z,82.51
2022-10-05T00:37:57.523Z,82.71
2022-10-05T00:38:57.537Z,82.82
2022-10-05T00:39:57.502Z,82.41
2022-10-05T00:40:57.492Z,82.41
2022-10-05T00:41:57.516Z,82.82
2022-10-05T00:42:57.464Z,82.82
2022-10-05T00:43:57.463Z,82.71
2022-10-05T00:44:57.440Z,82.82
2022-10-05T00:45:57.513Z,82.41
2022-10-05T00:46:57.445Z,82.82
2022-10-05T00:47:57.427Z,82.51
2022-10-05T00:48:57.405Z,83.03
2022-10-05T00:49:57.413Z,82.51
2022-10-05T00:50:57.380Z,82.41
2022-10-05T00:51:57.369Z,82.41
2022-10-05T00:52:57.357Z,82.31
2022-10-05T00:53:57.363Z,82.51
2022-10-05T00:54:57.404Z,82.51
2022-10-05T00:55:57.339Z,82.31
2022-10-05T00:56:57.310Z,82.41
2022-10-05T00:57:57.297Z,82.20
2022-10-05T00:58:57.288Z,82.71
2022-10-05T00:59:57.307Z,82.71
2022-10-05T01:00:57.307Z,82.41
2022-10-05T01:01:57.365Z,82.41
2022-10-05T01:02:57.241Z,82.92
2022-10-05T01:03:57.337Z,82.92
2022-10-05T01:04:57.216Z,83.03
2022-10-05T01:05:57.373Z,82.92
2022-10-05T01:06:57.197Z,82.62
2022-10-05T01:07:57.190Z,82.71
2022-10-05T01:08:57.173Z,82.71
2022-10-05T01:09:57.182Z,82.68
2022-10-05T01:10:57.168Z,82.89
2022-10-05T01:11:57.169Z,82.68
2022-10-05T01:12:57.135Z,82.71
2022-10-05T01:13:57.118Z,82.71
2022-10-05T01:14:57.111Z,82.82
2022-10-05T01:15:57.092Z,82.51
2022-10-05T01:16:57.151Z,82.37
2022-10-05T01:17:57.128Z,82.47
2022-10-05T01:18:57.056Z,82.92
2022-10-05T01:19:57.054Z,82.51
2022-10-05T01:20:57.060Z,82.31
2022-10-05T01:21:57.056Z,82.51
2022-10-05T01:22:57.030Z,82.51
2022-10-05T01:23:57.088Z,82.82
2022-10-05T01:24:57.002Z,82.92
2022-10-05T01:25:56.988Z,82.82
2022-10-05T01:26:56.974Z,82.41
2022-10-05T01:27:57.028Z,82.82
2022-10-05T01:28:56.949Z,82.82
2022-10-05T01:29:57.046Z,82.92
2022-10-05T01:30:56.931Z,82.92
2022-10-05T01:31:56.974Z,82.92
2022-10-05T01:32:56.977Z,82.71
2022-10-05T01:33:56.903Z,82.82
2022-10-05T01:34:56.882Z,82.82
2022-10-05T01:35:56.886Z,82.71
2022-10-05T01:36:56.981Z,82.68
2022-10-05T01:37:56.876Z,83.13
2022-10-05T01:38:56.833Z,82.89
2022-10-05T01:39:56.827Z,82.89
2022-10-05T01:40:56.811Z,83.09
2022-10-05T01:41:56.814Z,82.89
2022-10-05T01:42:56.798Z,82.68
2022-10-05T01:43:56.778Z,83.09
2022-10-05T01:44:56.783Z,82.89
2022-10-05T01:45:56.845Z,82.68
2022-10-05T01:46:56.743Z,82.89
2022-10-05T01:47:56.752Z,82.68
2022-10-05T01:48:56.720Z,82.68
2022-10-05T01:49:56.718Z,82.68
2022-10-05T01:50:56.707Z,83.19
2022-10-05T01:51:56.689Z,82.89
2022-10-05T01:52:56.702Z,82.68
2022-10-05T01:53:56.704Z,83.19
2022-10-05T01:54:56.665Z,82.89
2022-10-05T01:55:56.644Z,82.68
2022-10-05T01:56:56.636Z,82.68
2022-10-05T01:57:56.630Z,82.89
2022-10-05T01:58:56.611Z,82.89
2022-10-05T01:59:56.695Z,82.89
2022-10-05T02:00:56.611Z,82.89
2022-10-05T02:01:56.618Z,83.09
2022-10-05T02:02:56.566Z,82.89
2022-10-05T02:03:56.621Z,82.89
2022-10-05T02:05:02.083Z,83.09
2022-10-05T02:05:57.557Z,83.09
2022-10-05T02:06:56.521Z,82.89
2022-10-05T02:07:56.548Z,82.68
2022-10-05T02:08:56.502Z,82.89
2022-10-05T02:09:56.514Z,82.78
2022-10-05T02:10:56.501Z,82.99
2022-10-05T02:11:56.990Z,82.68
2022-10-05T02:12:56.453Z,82.89
2022-10-05T02:13:56.460Z,82.68
2022-10-05T02:14:56.431Z,82.68
2022-10-05T02:15:56.496Z,82.89
2022-10-05T02:16:56.414Z,82.89
2022-10-05T02:17:56.448Z,82.89
2022-10-05T02:18:56.391Z,82.89
2022-10-05T02:19:56.412Z,82.68
2022-10-05T02:20:56.368Z,82.89
2022-10-05T02:21:56.379Z,82.78
2022-10-05T02:22:56.340Z,82.99
2022-10-05T02:23:56.406Z,82.99
2022-10-05T02:24:56.318Z,82.71
2022-10-05T02:25:56.332Z,82.71
2022-10-05T02:26:56.366Z,82.92
2022-10-05T02:27:56.348Z,83.13
2022-10-05T02:28:56.271Z,82.92
2022-10-05T02:29:56.301Z,82.92
2022-10-05T02:30:56.251Z,82.82
2022-10-05T02:31:56.305Z,83.03
2022-10-05T02:32:56.233Z,83.19
2022-10-05T02:33:56.215Z,82.92
2022-10-05T02:34:56.208Z,82.92
2022-10-05T02:35:56.272Z,83.03
2022-10-05T02:36:56.251Z,82.92
2022-10-05T02:37:56.201Z,82.92
2022-10-05T02:38:56.160Z,83.13
2022-10-05T02:39:56.154Z,83.03
2022-10-05T02:40:56.137Z,83.03
2022-10-05T02:41:56.179Z,82.92
2022-10-05T02:42:56.158Z,83.13
2022-10-05T02:43:56.145Z,83.23
2022-10-05T02:44:56.100Z,83.13
2022-10-05T02:45:56.148Z,83.03
2022-10-05T02:46:57.435Z,82.82
2022-10-05T02:47:56.094Z,82.82
2022-10-05T02:48:56.045Z,82.92
2022-10-05T02:49:56.041Z,82.82
2022-10-05T02:50:56.069Z,83.13
2022-10-05T02:51:56.017Z,83.03
2022-10-05T02:52:56.004Z,82.82
2022-10-05T02:53:56.058Z,82.82
2022-10-05T02:54:55.981Z,82.82
2022-10-05T02:55:55.969Z,83.13
2022-10-05T02:56:56.488Z,83.13
2022-10-05T02:57:55.971Z,83.13
2022-10-05T02:58:55.944Z,83.13
2022-10-05T02:59:55.987Z,83.13
2022-10-05T03:00:55.994Z,82.82
2022-10-05T03:01:55.966Z,82.82
2022-10-05T03:02:55.894Z,83.13
2022-10-05T03:03:55.887Z,83.03
2022-10-05T03:04:55.869Z,82.92
2022-10-05T03:05:55.879Z,82.82
2022-10-05T03:06:55.869Z,83.03
2022-10-05T03:07:55.911Z,82.92
2022-10-05T03:08:55.822Z,82.92
2022-10-05T03:10:00.797Z,83.03
2022-10-05T03:10:56.815Z,83.03
2022-10-05T03:11:55.792Z,82.82
2022-10-05T03:12:55.781Z,82.92
2022-10-05T03:13:55.851Z,82.92
2022-10-05T03:14:55.756Z,82.92
2022-10-05T03:15:55.844Z,83.03
2022-10-05T03:16:55.766Z,82.82
2022-10-05T03:17:55.725Z,83.03
2022-10-05T03:18:55.714Z,82.92
2022-10-05T03:19:55.695Z,82.92
2022-10-05T03:20:55.720Z,82.92
2022-10-05T03:21:55.681Z,82.71
2022-10-05T03:22:55.682Z,82.92
2022-10-05T03:23:55.660Z,82.92
2022-10-05T03:24:55.762Z,83.13
2022-10-05T03:25:55.645Z,83.13
2022-10-05T03:26:55.622Z,83.13
2022-10-05T03:27:55.692Z,82.82
2022-10-05T03:28:55.635Z,82.82
2022-10-05T03:29:55.609Z,83.03
2022-10-05T03:30:55.607Z,83.13
2022-10-05T03:31:55.568Z,82.92
2022-10-05T03:32:55.548Z,82.92
2022-10-05T03:33:55.546Z,83.13
2022-10-05T03:34:55.576Z,82.82
2022-10-05T03:35:55.523Z,82.71
2022-10-05T03:36:55.559Z,82.99
2022-10-05T03:37:55.500Z,83.13
2022-10-05T03:38:55.501Z,82.92
2022-10-05T03:39:55.471Z,83.03
2022-10-05T03:40:55.555Z,82.82
2022-10-05T03:41:55.453Z,82.89
2022-10-05T03:42:55.442Z,82.78
2022-10-05T03:43:55.441Z,82.89
2022-10-05T03:44:55.443Z,82.99
2022-10-05T03:45:55.514Z,82.89
2022-10-05T03:46:55.427Z,82.89
2022-10-05T03:48:01.034Z,82.89
2022-10-05T03:48:56.370Z,83.29
2022-10-05T03:49:55.375Z,82.68
2022-10-05T03:50:55.349Z,83.03
2022-10-05T03:51:55.342Z,82.82
2022-10-05T03:52:55.373Z,82.78
2022-10-05T03:53:55.321Z,82.71
2022-10-05T03:54:55.308Z,83.13
2022-10-05T03:55:55.306Z,82.99
2022-10-05T03:56:55.309Z,82.82
2022-10-05T03:57:55.276Z,83.03
2022-10-05T03:58:55.274Z,82.92
2022-10-05T03:59:55.250Z,83.33
2022-10-05T04:00:55.243Z,82.92
2022-10-05T04:01:55.361Z,82.99
2022-10-05T04:02:55.292Z,82.92
2022-10-05T04:03:55.206Z,83.13
2022-10-05T04:04:55.281Z,82.99
2022-10-05T04:05:55.186Z,83.03
2022-10-05T04:06:55.189Z,83.13
2022-10-05T04:07:55.162Z,83.03
2022-10-05T04:08:55.151Z,82.99
2022-10-05T04:09:55.163Z,83.03
2022-10-05T04:10:55.148Z,83.13
2022-10-05T04:11:55.118Z,82.92
2022-10-05T04:12:55.105Z,83.33
2022-10-05T04:13:55.117Z,83.13
2022-10-05T04:14:55.082Z,83.13
2022-10-05T04:15:55.154Z,83.03
2022-10-05T04:16:55.110Z,83.03
2022-10-05T04:17:55.081Z,83.13
2022-10-05T04:18:55.045Z,82.71
2022-10-05T04:19:55.030Z,83.13
2022-10-05T04:20:55.047Z,83.13
2022-10-05T04:21:55.008Z,82.71
2022-10-05T04:22:55.006Z,83.13
2022-10-05T04:23:54.988Z,83.13
2022-10-05T04:24:54.969Z,83.03
2022-10-05T04:25:54.965Z,82.82
2022-10-05T04:26:54.948Z,83.13
2022-10-05T04:27:55.038Z,83.23
2022-10-05T04:28:54.977Z,83.23
2022-10-05T04:29:54.917Z,83.23
2022-10-05T04:30:54.947Z,83.23
2022-10-05T04:31:54.899Z,82.82
2022-10-05T04:32:54.881Z,82.82
2022-10-05T04:33:54.901Z,83.23
2022-10-05T04:34:54.889Z,83.23
2022-10-05T04:35:54.848Z,83.09
2022-10-05T04:36:54.857Z,83.23
2022-10-05T04:37:54.837Z,83.13
2022-10-05T04:38:54.820Z,82.92
2022-10-05T04:39:54.827Z,83.23
2022-10-05T04:40:54.831Z,83.19
2022-10-05T04:41:54.785Z,82.78
2022-10-05T04:42:54.778Z,82.82
2022-10-05T04:43:54.757Z,82.82
2022-10-05T04:44:58.942Z,82.82
2022-10-05T04:45:54.735Z,82.82
2022-10-05T04:46:54.767Z,83.29
2022-10-05T04:47:54.717Z,82.68
2022-10-05T04:48:54.763Z,83.19
2022-10-05T04:49:54.719Z,82.99
2022-10-05T04:50:54.685Z,82.99
2022-10-05T04:52:01.889Z,82.89
2022-10-05T04:53:02.375Z,83.03
2022-10-05T04:54:02.438Z,82.99
2022-10-05T04:54:54.637Z,83.03
2022-10-05T04:56:02.474Z,82.82
2022-10-05T04:57:02.499Z,83.13
2022-10-05T04:57:54.634Z,83.03
2022-10-05T04:58:54.594Z,82.71
2022-10-05T04:59:54.602Z,83.13
2022-10-05T05:00:54.645Z,83.23
2022-10-05T05:01:54.555Z,83.23
2022-10-05T05:02:54.543Z,83.33
2022-10-05T05:03:54.624Z,82.78
2022-10-05T05:04:54.521Z,83.23
2022-10-05T05:06:15.920Z,82.92
2022-10-05T05:06:55.500Z,82.89
2022-10-05T05:07:54.488Z,83.09
2022-10-05T05:08:54.498Z,83.29
2022-10-05T05:09:55.009Z,83.29
2022-10-05T05:10:54.457Z,82.89
2022-10-05T05:11:54.464Z,82.99
2022-10-05T05:12:54.432Z,83.05
2022-10-05T05:13:54.424Z,82.89
2022-10-05T05:14:54.412Z,83.09
2022-10-05T05:15:54.493Z,82.99
2022-10-05T05:16:54.390Z,83.09
2022-10-05T05:17:54.376Z,82.99
2022-10-05T05:18:54.394Z,82.95
2022-10-05T05:19:54.356Z,82.95
2022-10-05T05:20:54.347Z,83.09
2022-10-05T05:21:54.460Z,82.84
2022-10-05T05:22:54.320Z,82.95
2022-10-05T05:23:54.311Z,82.75
2022-10-05T05:24:54.296Z,82.75
2022-10-05T05:25:54.306Z,83.05
2022-10-05T05:26:54.277Z,82.64
2022-10-05T05:27:54.361Z,82.64
2022-10-05T05:28:54.254Z,83.05
2022-10-05T05:29:54.245Z,82.84
2022-10-05T05:30:54.329Z,82.75
2022-10-05T05:31:54.219Z,82.95
2022-10-05T05:32:54.217Z,82.81
2022-10-05T05:33:54.214Z,82.95
2022-10-05T05:34:54.194Z,82.91
2022-10-05T05:35:54.183Z,83.22
2022-10-05T05:36:54.169Z,82.84
2022-10-05T05:37:54.174Z,82.81
2022-10-05T05:38:54.137Z,82.81
2022-10-05T05:39:54.250Z,82.81
2022-10-05T05:40:54.117Z,82.81
2022-10-05T05:41:54.111Z,82.97
2022-10-05T05:42:54.119Z,83.12
2022-10-05T05:43:54.081Z,82.91
2022-10-05T05:44:54.172Z,83.18
2022-10-05T05:45:54.564Z,82.97
2022-10-05T05:47:04.528Z,82.87
2022-10-05T05:47:55.960Z,82.87
2022-10-05T05:48:54.050Z,82.67
2022-10-05T05:49:54.020Z,82.53
2022-10-05T05:50:54.002Z,82.67
2022-10-05T05:51:54.009Z,82.83
2022-10-05T05:52:53.975Z,82.73
2022-10-05T05:53:53.996Z,82.93
2022-10-05T05:54:54.020Z,82.83
2022-10-05T05:55:53.974Z,82.63
2022-10-05T05:56:53.957Z,82.53
2022-10-05T05:57:53.953Z,82.73
2022-10-05T05:58:53.914Z,82.49
2022-10-05T05:59:53.901Z,82.69
2022-10-05T06:00:53.912Z,82.69
2022-10-05T06:01:54.008Z,82.59
2022-10-05T06:02:53.957Z,82.59
2022-10-05T06:03:53.906Z,82.24
2022-10-05T06:04:53.840Z,82.24
2022-10-05T06:05:53.946Z,82.14
2022-10-05T06:06:53.822Z,82.35
2022-10-05T06:07:53.809Z,82.24
2022-10-05T06:08:53.835Z,82.14
2022-10-05T06:09:53.880Z,82.14
2022-10-05T06:10:53.796Z,81.52
2022-10-05T06:11:53.761Z,82.14
2022-10-05T06:12:55.644Z,82.41
2022-10-05T06:13:53.745Z,82.14
2022-10-05T06:14:53.731Z,82.04
2022-10-05T06:15:53.868Z,82.14
2022-10-05T06:16:53.813Z,82.04
2022-10-05T06:17:53.692Z,82.00
2022-10-05T06:18:53.684Z,82.00
2022-10-05T06:19:53.680Z,82.35
2022-10-05T06:20:53.667Z,82.21
2022-10-05T06:21:53.667Z,82.00
2022-10-05T06:22:53.665Z,82.21
2022-10-05T06:23:53.628Z,82.00
2022-10-05T06:24:53.621Z,82.21
2022-10-05T06:25:53.643Z,82.00
2022-10-05T06:26:53.599Z,82.00
2022-10-05T06:27:53.642Z,82.31
2022-10-05T06:28:53.572Z,82.00
2022-10-05T06:29:53.561Z,82.10
2022-10-05T06:30:53.549Z,82.31
2022-10-05T06:31:58.613Z,82.21
2022-10-05T06:32:54.544Z,82.41
2022-10-05T06:33:53.514Z,82.41
2022-10-05T06:34:53.504Z,82.10
2022-10-05T06:35:53.489Z,81.96
2022-10-05T06:36:53.503Z,82.31
2022-10-05T06:37:53.480Z,82.27
2022-10-05T06:38:53.469Z,81.45
2022-10-05T06:39:55.462Z,82.17
2022-10-05T06:40:54.546Z,82.13
2022-10-05T06:41:53.471Z,82.13
2022-10-05T06:42:53.416Z,82.13
2022-10-05T06:43:53.407Z,82.13
2022-10-05T06:44:53.416Z,82.03
2022-10-05T06:45:53.477Z,82.13
2022-10-05T06:46:53.367Z,81.72
2022-10-05T06:47:53.352Z,81.72
2022-10-05T06:48:53.347Z,81.88
2022-10-05T06:49:53.323Z,81.82
2022-10-05T06:50:53.355Z,81.72
2022-10-05T06:51:53.384Z,81.88
2022-10-05T06:52:53.299Z,81.68
2022-10-05T06:53:53.295Z,81.68
2022-10-05T06:54:53.269Z,81.54
2022-10-05T06:55:53.295Z,81.68
2022-10-05T06:56:53.279Z,81.79
2022-10-05T06:57:53.338Z,81.79
2022-10-05T06:58:53.236Z,81.68
2022-10-05T06:59:53.221Z,81.79
2022-10-05T07:00:53.312Z,81.85
2022-10-05T07:01:53.302Z,81.74
2022-10-05T07:02:53.204Z,81.74
2022-10-05T07:03:53.177Z,81.65
2022-10-05T07:04:53.153Z,81.54
2022-10-05T07:05:53.153Z,81.65
2022-10-05T07:06:53.137Z,81.74
2022-10-05T07:07:53.127Z,81.74
2022-10-05T07:08:53.133Z,81.74
2022-10-05T07:09:53.100Z,81.74
2022-10-05T07:10:53.093Z,81.74
2022-10-05T07:11:58.344Z,81.85
2022-10-05T07:12:54.071Z,81.65
2022-10-05T07:13:53.094Z,81.85
2022-10-05T07:14:53.082Z,81.74
2022-10-05T07:15:53.039Z,81.65
2022-10-05T07:16:53.157Z,81.54
2022-10-05T07:17:53.022Z,81.74
2022-10-05T07:18:53.020Z,81.60
2022-10-05T07:19:53.004Z,81.51
2022-10-05T07:20:53.819Z,81.26
2022-10-05T07:21:52.972Z,80.85
2022-10-05T07:22:52.976Z,80.61
2022-10-05T07:23:52.947Z,80.61
2022-10-05T07:24:52.935Z,80.57
2022-10-05T07:25:53.035Z,80.57
2022-10-05T07:26:52.929Z,80.57
2022-10-05T07:27:52.908Z,80.54
2022-10-05T07:28:52.886Z,80.43
2022-10-05T07:29:52.905Z,80.19
2022-10-05T07:30:52.932Z,80.60
2022-10-05T07:31:52.860Z,80.40
2022-10-05T07:32:52.888Z,80.70
2022-10-05T07:33:52.834Z,80.70
2022-10-05T07:34:52.847Z,80.60
2022-10-05T07:35:52.807Z,80.94
2022-10-05T07:36:55.001Z,81.56
2022-10-05T07:37:52.794Z,81.76
2022-10-05T07:38:52.817Z,81.25
2022-10-05T07:40:00.523Z,81.45
2022-10-05T07:40:53.763Z,81.59
2022-10-05T07:41:52.765Z,81.56
2022-10-05T07:42:52.729Z,81.45
2022-10-05T07:44:12.507Z,81.45
2022-10-05T07:44:53.732Z,81.66
2022-10-05T07:45:52.842Z,81.62
2022-10-05T07:46:52.700Z,81.41
2022-10-05T07:47:52.672Z,81.41
2022-10-05T07:48:52.664Z,81.48
2022-10-05T07:49:52.646Z,80.77
2022-10-05T07:50:52.658Z,80.73
2022-10-05T07:51:52.751Z,80.63
2022-10-05T07:52:52.632Z,80.38
2022-10-05T07:53:52.608Z,80.24
2022-10-05T07:54:52.635Z,80.35
2022-10-05T07:55:52.588Z,80.24
2022-10-05T07:56:52.636Z,80.35
2022-10-05T07:57:52.551Z,80.21
2022-10-05T07:58:52.552Z,80.31
2022-10-05T07:59:52.539Z,80.21
2022-10-05T08:00:52.539Z,80.41
2022-10-05T08:01:52.632Z,80.21
2022-10-05T08:02:52.590Z,80.62
2022-10-05T08:03:52.521Z,80.47
2022-10-05T08:04:52.477Z,80.62
2022-10-05T08:05:52.472Z,80.41
2022-10-05T08:06:52.468Z,80.62
2022-10-05T08:07:52.452Z,81.43
2022-10-05T08:08:52.448Z,81.06
2022-10-05T08:11:07.984Z,81.26
2022-10-05T08:12:07.986Z,81.16
2022-10-05T08:13:07.964Z,81.06
2022-10-05T08:14:08.138Z,81.16
2022-10-05T08:15:07.943Z,81.43
2022-10-05T08:16:07.951Z,81.53
2022-10-05T08:17:07.942Z,81.02
2022-10-05T08:18:07.915Z,81.39
2022-10-05T08:19:07.904Z,81.39
2022-10-05T08:20:07.923Z,81.09
2022-10-05T08:21:07.885Z,81.09
2022-10-05T08:22:07.867Z,80.98
2022-10-05T08:23:07.851Z,81.25
2022-10-05T08:24:07.841Z,81.05
2022-10-05T08:25:07.833Z,81.21
2022-10-05T08:26:07.897Z,81.41
2022-10-05T08:27:07.808Z,81.31
2022-10-05T08:28:07.946Z,81.27
2022-10-05T08:29:12.842Z,80.66
2022-10-05T08:30:08.776Z,80.77
2022-10-05T08:31:07.830Z,80.53
2022-10-05T08:32:07.781Z,80.22
2022-10-05T08:33:07.769Z,80.08
2022-10-05T08:34:07.742Z,80.15
2022-10-05T08:35:07.718Z,79.64
2022-10-05T08:36:07.722Z,79.24
2022-10-05T08:37:07.691Z,79.50
2022-10-05T08:38:07.714Z,79.57
2022-10-05T08:39:07.739Z,79.26
2022-10-05T08:40:07.660Z,78.92
2022-10-05T08:41:08.376Z,78.88
2022-10-05T08:42:07.646Z,79.29
2022-10-05T08:43:07.736Z,79.05
2022-10-05T08:44:07.640Z,77.70
2022-10-05T08:45:07.615Z,79.01
2022-10-05T08:46:07.680Z,79.08
2022-10-05T08:47:07.583Z,78.97
2022-10-05T08:48:07.588Z,78.63
2022-10-05T08:49:07.592Z,78.84
2022-10-05T08:50:07.653Z,79.04
2022-10-05T08:51:07.603Z,78.80
2022-10-05T08:52:07.571Z,79.00
2022-10-05T08:55:41.085Z,78.06
2022-10-05T09:00:09.590Z,79.24
2022-10-05T09:01:10.281Z,78.53
2022-10-05T09:02:10.005Z,79.64
2022-10-05T09:03:09.754Z,78.84
2022-10-05T09:06:49.421Z,78.74
2022-10-05T09:07:59.831Z,78.94
2022-10-05T09:08:49.070Z,79.08
2022-10-05T09:10:01.669Z,79.28
2022-10-05T09:11:03.983Z,79.38
2022-10-05T09:13:04.131Z,79.17
2022-10-05T09:14:04.117Z,79.41
2022-10-05T09:15:26.773Z,79.88
2022-10-05T09:16:05.152Z,79.92
2022-10-05T09:17:04.088Z,80.32
2022-10-05T09:18:04.095Z,80.02
2022-10-05T09:19:11.453Z,79.86
2022-10-05T09:20:11.961Z,81.17
2022-10-05T09:21:12.001Z,80.43
2022-10-05T09:22:11.687Z,80.16
2022-10-05T09:23:11.577Z,80.26
2022-10-05T09:24:04.009Z,80.22
2022-10-05T09:25:04.004Z,80.12
2022-10-05T09:26:03.979Z,79.82
2022-10-05T09:27:03.966Z,80.02
2022-10-05T09:28:04.118Z,79.99
2022-10-05T09:29:03.949Z,79.99
2022-10-05T09:30:03.933Z,79.68
2022-10-05T09:31:04.377Z,79.68
2022-10-05T09:32:03.913Z,79.64
2022-10-05T09:33:03.909Z,79.74
2022-10-05T09:34:03.890Z,79.74
2022-10-05T09:35:03.874Z,79.94
2022-10-05T09:36:03.881Z,79.74
2022-10-05T09:37:03.868Z,79.85
2022-10-05T09:38:03.919Z,79.85
2022-10-05T09:39:03.836Z,79.74
2022-10-05T09:40:03.848Z,79.50
2022-10-05T09:41:03.814Z,79.50
2022-10-05T09:42:03.796Z,79.64
2022-10-05T09:43:03.899Z,79.50
2022-10-05T09:44:03.788Z,79.71
2022-10-05T09:45:03.770Z,79.61
2022-10-05T09:46:03.781Z,79.71
2022-10-05T09:47:03.783Z,79.61
2022-10-05T09:48:03.730Z,79.67
2022-10-05T09:50:31.758Z,79.67
2022-10-05T09:51:31.724Z,79.67
2022-10-05T09:52:31.724Z,79.77
2022-10-05T09:53:31.725Z,79.91
2022-10-05T09:54:31.702Z,79.87
2022-10-05T09:55:31.684Z,79.77
2022-10-05T09:56:31.694Z,80.27
2022-10-05T09:57:31.662Z,80.18
2022-10-05T09:58:31.647Z,79.83
2022-10-05T09:59:31.641Z,79.93
2022-10-05T10:00:32.177Z,79.73
2022-10-05T10:01:34.290Z,80.04
2022-10-05T10:02:31.833Z,80.04
2022-10-05T10:03:31.707Z,80.04
2022-10-05T10:04:31.579Z,80.04
2022-10-05T10:05:31.570Z,79.83
2022-10-05T10:06:31.620Z,79.93
2022-10-05T10:07:31.548Z,79.83
2022-10-05T10:08:31.556Z,79.73
2022-10-05T10:09:35.189Z,80.13
2022-10-05T10:10:32.543Z,79.83
2022-10-05T10:11:31.507Z,79.83
2022-10-05T10:12:31.492Z,79.80
2022-10-05T10:13:31.486Z,79.80
2022-10-05T10:14:31.484Z,79.90
2022-10-05T10:15:31.482Z,79.56
2022-10-05T10:16:31.449Z,79.46
2022-10-05T10:17:31.431Z,79.56
2022-10-05T10:18:31.425Z,79.62
2022-10-05T10:19:31.406Z,79.42
2022-10-05T10:20:31.431Z,79.25
2022-10-05T10:21:31.397Z,79.32
2022-10-05T10:22:31.394Z,79.11
2022-10-05T10:23:31.387Z,78.98
2022-10-05T10:24:31.352Z,78.81
2022-10-05T10:25:31.364Z,78.58
2022-10-05T10:26:31.380Z,78.67
2022-10-05T10:27:31.318Z,78.38
2022-10-05T10:28:31.408Z,78.58
2022-10-05T10:29:31.296Z,79.08
2022-10-05T10:30:33.149Z,78.91
2022-10-05T10:31:32.305Z,79.11
2022-10-05T10:32:31.269Z,79.32
2022-10-05T10:33:31.248Z,79.32
2022-10-05T10:34:31.271Z,79.42
2022-10-05T10:35:31.235Z,79.72
2022-10-05T10:36:32.193Z,79.96
2022-10-05T10:37:31.252Z,79.66
2022-10-05T10:38:31.194Z,79.86
2022-10-05T10:39:31.187Z,79.60
2022-10-05T10:40:31.172Z,79.76
2022-10-05T10:41:31.192Z,79.96
2022-10-05T10:42:31.173Z,79.96
2022-10-05T10:43:31.173Z,79.76
2022-10-05T10:44:31.177Z,80.10
2022-10-05T10:45:31.120Z,79.76
2022-10-05T10:46:31.423Z,79.96
2022-10-05T10:47:31.096Z,79.82
2022-10-05T10:48:31.084Z,79.42
2022-10-05T10:49:31.106Z,79.32
2022-10-05T10:50:31.061Z,79.08
2022-10-05T10:51:31.062Z,78.91
2022-10-05T10:52:31.037Z,78.78
2022-10-05T10:53:31.023Z,79.18
2022-10-05T10:54:31.017Z,78.47
2022-10-05T10:55:31.070Z,78.98
2022-10-05T10:56:30.991Z,78.58
2022-10-05T10:57:31.025Z,79.18
2022-10-05T10:59:31.791Z,78.78
2022-10-05T11:00:30.947Z,79.18
2022-10-05T11:01:30.994Z,79.04
2022-10-05T11:02:30.961Z,79.14
2022-10-05T11:03:30.915Z,79.14
2022-10-05T11:04:30.895Z,78.94
2022-10-05T11:05:30.920Z,78.74
2022-10-05T11:06:30.881Z,78.64
2022-10-05T11:07:30.901Z,78.84
2022-10-05T11:08:30.858Z,78.74
2022-10-05T11:09:30.902Z,78.60
2022-10-05T11:10:30.835Z,78.10
2022-10-05T11:11:30.825Z,78.50
2022-10-05T11:12:34.410Z,78.60
2022-10-05T11:13:30.848Z,78.10
2022-10-05T11:14:30.787Z,78.40
2022-10-05T11:15:30.778Z,78.40
2022-10-05T11:16:30.800Z,78.40
2022-10-05T11:17:30.778Z,78.80
2022-10-05T11:18:30.740Z,78.60
2022-10-05T11:19:40.053Z,78.90
2022-10-05T11:20:31.723Z,78.90
2022-10-05T11:21:30.729Z,78.80
2022-10-05T11:22:30.732Z,78.90
2022-10-05T11:23:34.153Z,78.90
2022-10-05T11:24:31.820Z,79.21
2022-10-05T11:25:30.661Z,78.86
2022-10-05T11:26:30.658Z,78.86
2022-10-05T11:27:30.639Z,78.56
2022-10-05T11:28:30.711Z,78.66
2022-10-05T11:29:30.645Z,78.56
2022-10-05T11:30:30.642Z,78.66
2022-10-05T11:31:30.685Z,79.17
2022-10-05T11:32:30.585Z,78.56
2022-10-05T11:33:30.711Z,78.03
2022-10-05T11:34:30.555Z,78.66
2022-10-05T11:35:30.545Z,78.56
2022-10-05T11:36:30.558Z,78.83
2022-10-05T11:37:30.639Z,78.53
2022-10-05T11:38:30.520Z,78.39
2022-10-05T11:39:30.499Z,78.59
2022-10-05T11:40:30.504Z,78.69
2022-10-05T11:41:30.489Z,78.45
2022-10-05T11:42:30.519Z,78.85
2022-10-05T11:43:30.481Z,78.45
2022-10-05T11:44:30.443Z,77.65
2022-10-05T11:45:30.467Z,77.91
2022-10-05T11:46:30.520Z,78.22
2022-10-05T11:47:30.411Z,78.31
2022-10-05T11:48:30.477Z,78.18
2022-10-05T11:49:30.389Z,78.52
2022-10-05T11:50:30.386Z,78.11
2022-10-05T11:51:30.369Z,78.52
2022-10-05T11:52:30.365Z,78.22
2022-10-05T11:53:30.347Z,78.31
2022-10-05T11:54:32.494Z,78.22
2022-10-05T11:55:31.324Z,78.25
2022-10-05T11:57:30.374Z,77.91
2022-10-05T11:58:30.290Z,77.75
2022-10-05T11:59:30.287Z,78.05
2022-10-05T12:00:30.291Z,77.85
2022-10-05T12:01:30.307Z,77.35
2022-10-05T12:02:30.284Z,77.45
2022-10-05T12:03:30.371Z,77.55
2022-10-05T12:04:30.225Z,78.15
2022-10-05T12:05:30.215Z,77.81
2022-10-05T12:06:30.309Z,77.95
2022-10-05T12:07:30.192Z,78.05
2022-10-05T12:08:30.174Z,77.51
2022-10-05T12:09:30.274Z,78.25
2022-10-05T12:10:30.161Z,77.51
2022-10-05T12:11:30.159Z,77.45
2022-10-05T12:12:30.178Z,77.35
2022-10-05T12:13:30.119Z,78.45
2022-10-05T12:14:30.110Z,78.55
2022-10-05T12:15:30.097Z,78.66
2022-10-05T12:16:30.083Z,78.25
2022-10-05T12:17:30.147Z,78.79
2022-10-05T12:18:30.123Z,78.69
2022-10-05T12:19:30.050Z,78.55
2022-10-05T12:20:30.049Z,78.69
2022-10-05T12:21:30.030Z,78.55
2022-10-05T12:22:30.021Z,78.89
2022-10-05T12:23:30.008Z,78.59
2022-10-05T12:24:30.049Z,78.59
2022-10-05T12:25:29.979Z,78.63
2022-10-05T12:26:29.975Z,78.59
2022-10-05T12:27:30.009Z,78.33
2022-10-05T12:28:29.972Z,78.73
2022-10-05T12:29:29.933Z,78.33
2022-10-05T12:30:29.995Z,78.46
2022-10-05T12:31:29.957Z,78.36
2022-10-05T12:32:29.902Z,78.12
2022-10-05T12:33:29.937Z,78.16
2022-10-05T12:34:29.875Z,78.33
2022-10-05T12:35:47.004Z,78.12
2022-10-05T12:36:46.217Z,77.96
2022-10-05T12:37:30.859Z,78.06
2022-10-05T12:38:29.860Z,78.77
2022-10-05T12:39:29.820Z,78.46
2022-10-05T12:40:29.808Z,78.56
2022-10-05T12:41:29.820Z,78.66
2022-10-05T12:42:29.850Z,78.77
2022-10-05T12:43:29.777Z,77.86
2022-10-05T12:44:29.771Z,78.46
2022-10-05T12:45:29.813Z,78.36
2022-10-05T12:46:29.825Z,78.16
2022-10-05T12:47:29.733Z,78.56
2022-10-05T12:48:29.733Z,78.16
2022-10-05T12:49:29.777Z,78.16
2022-10-05T12:50:29.701Z,78.46
2022-10-05T12:51:29.754Z,78.56
2022-10-05T12:52:29.683Z,78.16
2022-10-05T12:53:29.665Z,78.36
2022-10-05T12:54:29.684Z,79.10
2022-10-05T12:55:29.639Z,78.70
2022-10-05T12:56:29.643Z,78.90
2022-10-05T12:57:29.627Z,78.70
2022-10-05T12:58:29.605Z,78.60
2022-10-05T12:59:29.599Z,78.60
2022-10-05T13:00:29.619Z,78.20
2022-10-05T13:01:29.568Z,78.20
2022-10-05T13:02:29.563Z,78.30
2022-10-05T13:03:29.549Z,78.20
2022-10-05T13:04:29.544Z,79.00
2022-10-05T13:05:29.563Z,78.10
2022-10-05T13:06:29.546Z,78.70
2022-10-05T13:07:29.504Z,78.90